createdAt,value
2017-08-11T00:00:25.021Z,91.87
2017-08-11T00:02:50.797Z,91.74
2017-08-11T00:05:16.617Z,91.21
2017-08-11T00:07:42.381Z,91.05
2017-08-11T00:10:08.180Z,91.75
2017-08-11T00:12:34.072Z,91.61
2017-08-11T00:14:59.867Z,91.56
2017-08-11T00:17:25.631Z,91.74
2017-08-11T00:19:51.494Z,92.03
2017-08-11T00:22:17.239Z,91.71
2017-08-11T00:24:43.144Z,92.59
2017-08-11T00:27:08.934Z,91.92
2017-08-11T00:29:34.708Z,90.26
2017-08-11T00:32:04.620Z,89.72
2017-08-11T00:34:30.548Z,90.05
2017-08-11T00:36:56.317Z,89.64
2017-08-11T00:39:22.074Z,89.46
2017-08-11T00:41:47.935Z,89.63
2017-08-11T00:44:13.781Z,90.17
2017-08-11T00:46:39.535Z,89.40
2017-08-11T00:49:05.359Z,88.19
2017-08-11T00:51:31.198Z,88.85
2017-08-11T00:53:57.010Z,89.66
2017-08-11T00:56:22.799Z,89.54
2017-08-11T00:58:48.618Z,90.22
2017-08-11T01:01:14.496Z,89.50
2017-08-11T01:03:40.241Z,89.97
2017-08-11T01:06:06.103Z,90.32
2017-08-11T01:08:31.993Z,90.06
2017-08-11T01:10:57.760Z,90.27
2017-08-11T01:13:23.537Z,88.76
2017-08-11T01:15:49.369Z,88.29
2017-08-11T01:18:15.252Z,88.85
2017-08-11T01:20:40.995Z,88.78
2017-08-11T01:23:06.856Z,89.34
2017-08-11T01:25:32.614Z,87.78
2017-08-11T01:27:58.441Z,87.29
2017-08-11T01:30:24.285Z,88.02
2017-08-11T01:32:50.093Z,88.26
2017-08-11T01:35:15.966Z,87.57
2017-08-11T01:37:41.714Z,87.85
2017-08-11T01:40:07.606Z,88.52
2017-08-11T01:42:33.404Z,89.53
2017-08-11T01:44:59.163Z,89.50
2017-08-11T01:47:25.031Z,91.45
2017-08-11T01:49:50.797Z,92.86
2017-08-11T01:52:16.612Z,92.73
2017-08-11T01:54:42.471Z,91.66
2017-08-11T01:57:08.298Z,89.76
2017-08-11T01:59:34.105Z,88.61
2017-08-11T02:01:59.915Z,89.60
2017-08-11T02:04:25.758Z,89.66
2017-08-11T02:06:51.538Z,91.31
2017-08-11T02:09:17.369Z,91.67
2017-08-11T02:11:43.204Z,91.93
2017-08-11T02:14:09.019Z,91.42
2017-08-11T02:16:34.837Z,91.68
2017-08-11T02:19:00.630Z,88.93
2017-08-11T02:21:26.486Z,89.88
2017-08-11T02:23:52.340Z,91.48
2017-08-11T02:26:18.094Z,91.01
2017-08-11T02:28:43.930Z,91.36
2017-08-11T02:31:09.743Z,89.91
2017-08-11T02:33:35.567Z,91.31
2017-08-11T02:36:01.354Z,90.84
2017-08-11T02:38:27.183Z,89.87
2017-08-11T02:40:53.019Z,89.04
2017-08-11T02:43:18.827Z,88.94
2017-08-11T02:45:44.654Z,89.39
2017-08-11T02:48:10.380Z,88.68
2017-08-11T02:50:36.142Z,89.12
2017-08-11T02:53:01.881Z,89.51
2017-08-11T02:55:27.774Z,89.20
2017-08-11T02:57:53.553Z,90.22
2017-08-11T03:00:19.336Z,90.17
2017-08-11T03:02:45.226Z,89.85
2017-08-11T03:05:10.982Z,89.87
2017-08-11T03:07:36.776Z,90.29
2017-08-11T03:10:02.633Z,90.20
2017-08-11T03:12:28.416Z,90.27
2017-08-11T03:14:54.280Z,90.51
2017-08-11T03:17:20.134Z,89.24
2017-08-11T03:19:45.897Z,88.32
2017-08-11T03:22:11.728Z,89.48
2017-08-11T03:24:37.519Z,89.28
2017-08-11T03:27:03.350Z,89.94
2017-08-11T03:29:29.212Z,89.48
2017-08-11T03:31:55.021Z,89.71
2017-08-11T03:34:20.899Z,90.04
2017-08-11T03:36:46.636Z,89.53
2017-08-11T03:39:12.421Z,89.34
2017-08-11T03:41:38.283Z,89.35
2017-08-11T03:44:04.059Z,89.14
2017-08-11T03:46:29.901Z,88.98
2017-08-11T03:48:55.759Z,89.37
2017-08-11T03:51:21.523Z,88.48
2017-08-11T03:53:47.334Z,88.86
2017-08-11T03:56:13.171Z,88.61
2017-08-11T03:58:39.114Z,87.82
2017-08-11T04:01:04.871Z,88.28
2017-08-11T04:03:30.601Z,88.83
2017-08-11T04:05:56.469Z,89.35
2017-08-11T04:08:22.257Z,89.41
2017-08-11T04:10:48.190Z,89.45
2017-08-11T04:13:13.892Z,89.60
2017-08-11T04:15:39.769Z,89.98
2017-08-11T04:18:05.548Z,89.17
2017-08-11T04:20:31.359Z,89.76
2017-08-11T04:22:57.154Z,91.86
2017-08-11T04:25:23.049Z,89.58
2017-08-11T04:27:48.920Z,89.57
2017-08-11T04:30:14.692Z,90.39
2017-08-11T04:32:40.492Z,89.71
2017-08-11T04:35:06.319Z,89.18
2017-08-11T04:37:32.057Z,87.88
2017-08-11T04:39:57.990Z,87.28
2017-08-11T04:42:23.760Z,87.33
2017-08-11T04:44:49.624Z,87.51
2017-08-11T04:47:15.421Z,87.44
2017-08-11T04:49:41.249Z,87.67
2017-08-11T04:52:07.021Z,86.99
2017-08-11T04:54:32.888Z,88.35
2017-08-11T04:56:58.680Z,87.53
2017-08-11T04:59:24.452Z,87.34
2017-08-11T05:01:50.316Z,87.42
2017-08-11T05:04:16.083Z,86.38
2017-08-11T05:06:41.916Z,86.68
2017-08-11T05:09:07.632Z,86.89
2017-08-11T05:11:33.341Z,86.38
2017-08-11T05:13:59.232Z,85.67
2017-08-11T05:16:24.964Z,84.91
2017-08-11T05:18:50.800Z,85.33
2017-08-11T05:21:16.578Z,84.63
2017-08-11T05:23:42.405Z,84.25
2017-08-11T05:26:08.152Z,84.93
2017-08-11T05:28:33.913Z,84.36
2017-08-11T05:30:59.729Z,86.57
2017-08-11T05:33:25.492Z,85.28
2017-08-11T05:35:51.276Z,84.50
2017-08-11T05:38:17.000Z,84.36
2017-08-11T05:40:42.751Z,84.55
2017-08-11T05:43:08.549Z,83.59
2017-08-11T05:45:34.359Z,82.86
2017-08-11T05:48:00.228Z,82.18
2017-08-11T05:50:26.100Z,81.68
2017-08-11T05:52:51.817Z,82.56
2017-08-11T05:55:17.664Z,82.48
2017-08-11T05:57:43.529Z,80.98
2017-08-11T06:00:09.280Z,81.43
2017-08-11T06:02:35.088Z,81.07
2017-08-11T06:05:00.911Z,82.42
2017-08-11T06:07:26.746Z,81.66
2017-08-11T06:09:52.543Z,81.11
2017-08-11T06:12:18.388Z,80.50
2017-08-11T06:14:44.272Z,80.47
2017-08-11T06:17:10.069Z,79.79
2017-08-11T06:19:35.907Z,80.26
2017-08-11T06:22:01.645Z,78.21
2017-08-11T06:24:27.511Z,77.06
2017-08-11T06:26:53.234Z,78.80
2017-08-11T06:29:18.940Z,77.12
2017-08-11T06:31:44.731Z,78.05
2017-08-11T06:34:10.600Z,78.77
2017-08-11T06:36:36.440Z,79.95
2017-08-11T06:39:02.256Z,80.05
2017-08-11T06:41:28.039Z,79.48
2017-08-11T06:43:53.885Z,77.78
2017-08-11T06:46:19.616Z,78.19
2017-08-11T06:48:45.544Z,78.98
2017-08-11T06:51:11.328Z,79.59
2017-08-11T06:53:37.076Z,78.60
2017-08-11T06:56:03.004Z,80.33
2017-08-11T06:58:28.724Z,80.17
2017-08-11T07:00:54.424Z,79.80
2017-08-11T07:03:20.257Z,78.48
2017-08-11T07:05:46.004Z,79.63
2017-08-11T07:08:11.775Z,78.26
2017-08-11T07:10:37.600Z,77.60
2017-08-11T07:13:03.461Z,77.07
2017-08-11T07:15:29.312Z,77.83
2017-08-11T07:17:55.102Z,76.12
2017-08-11T07:20:20.884Z,75.76
2017-08-11T07:22:46.688Z,76.32
2017-08-11T07:25:12.552Z,76.10
2017-08-11T07:27:38.336Z,76.99
2017-08-11T07:30:04.146Z,77.18
2017-08-11T07:32:30.050Z,76.62
2017-08-11T07:34:55.792Z,77.36
2017-08-11T07:37:21.682Z,76.85
2017-08-11T07:39:47.424Z,76.62
2017-08-11T07:42:13.264Z,75.56
2017-08-11T07:44:39.130Z,76.15
2017-08-11T07:47:05.003Z,76.19
2017-08-11T07:49:30.724Z,75.16
2017-08-11T07:51:56.581Z,74.26
2017-08-11T07:54:22.353Z,73.84
2017-08-11T07:56:48.177Z,73.89
2017-08-11T07:59:13.979Z,74.78
2017-08-11T08:01:39.729Z,75.46
2017-08-11T08:04:05.435Z,75.49
2017-08-11T08:06:31.295Z,77.50
2017-08-11T08:08:58.157Z,77.20
2017-08-11T08:11:24.034Z,77.52
2017-08-11T08:13:49.773Z,76.25
2017-08-11T08:16:15.603Z,76.96
2017-08-11T08:18:41.426Z,77.66
2017-08-11T08:21:07.198Z,76.22
2017-08-11T08:23:32.917Z,76.03
2017-08-11T08:25:58.655Z,76.68
2017-08-11T08:28:24.480Z,76.43
2017-08-11T08:30:50.295Z,77.66
2017-08-11T08:33:16.150Z,78.19
2017-08-11T08:35:41.889Z,76.90
2017-08-11T08:38:07.694Z,76.65
2017-08-11T08:40:33.654Z,78.01
2017-08-11T08:42:59.416Z,77.59
2017-08-11T08:45:25.146Z,78.13
2017-08-11T08:47:50.957Z,79.45
2017-08-11T08:50:16.881Z,80.87
2017-08-11T08:52:42.600Z,80.06
2017-08-11T08:55:08.489Z,80.39
2017-08-11T08:57:34.249Z,79.94
2017-08-11T09:00:00.052Z,81.12
2017-08-11T09:02:25.945Z,79.22
2017-08-11T09:04:51.680Z,79.47
2017-08-11T09:07:17.501Z,78.75
2017-08-11T09:09:43.422Z,78.01
2017-08-11T09:12:09.164Z,78.12
2017-08-11T09:14:34.985Z,78.62
2017-08-11T09:17:00.776Z,79.23
2017-08-11T09:19:26.625Z,80.67
2017-08-11T09:21:52.406Z,79.23
2017-08-11T09:24:30.650Z,79.27
2017-08-11T09:27:08.664Z,78.60
2017-08-11T09:29:46.521Z,78.89
2017-08-11T09:32:24.714Z,79.13
2017-08-11T09:35:02.695Z,79.30
2017-08-11T09:37:28.415Z,79.47
2017-08-11T09:39:54.253Z,79.79
2017-08-11T09:42:20.004Z,80.04
2017-08-11T09:44:45.836Z,80.11
2017-08-11T09:47:11.705Z,79.49
2017-08-11T09:49:37.481Z,78.40
2017-08-11T09:52:03.275Z,76.36
2017-08-11T09:54:29.153Z,75.81
2017-08-11T09:56:54.911Z,75.08
2017-08-11T09:59:20.744Z,76.59
2017-08-11T10:01:46.604Z,74.46
2017-08-11T10:04:12.393Z,74.85
2017-08-11T10:06:38.171Z,74.33
2017-08-11T10:09:04.064Z,73.86
2017-08-11T10:11:29.824Z,75.53
2017-08-11T10:13:55.633Z,76.25
2017-08-11T10:16:21.516Z,76.66
2017-08-11T10:18:47.266Z,76.66
2017-08-11T10:21:13.164Z,77.94
2017-08-11T10:23:38.948Z,78.87
2017-08-11T10:26:04.792Z,79.38
2017-08-11T10:28:30.624Z,79.19
2017-08-11T10:30:56.389Z,79.52
2017-08-11T10:33:22.167Z,80.33
2017-08-11T10:35:48.108Z,79.69
2017-08-11T10:38:13.849Z,79.84
2017-08-11T10:40:39.742Z,79.63
2017-08-11T10:43:05.483Z,79.31
2017-08-11T10:45:31.348Z,79.97
2017-08-11T10:47:57.194Z,80.57
2017-08-11T10:50:23.000Z,79.99
2017-08-11T10:52:48.746Z,81.08
2017-08-11T10:55:14.644Z,79.96
2017-08-11T10:57:40.497Z,79.79
2017-08-11T11:00:06.210Z,80.50
2017-08-11T11:02:31.998Z,80.39
2017-08-11T11:04:57.861Z,80.23
2017-08-11T11:07:23.672Z,78.92
2017-08-11T11:09:49.520Z,78.20
2017-08-11T11:12:15.325Z,78.17
2017-08-11T11:14:41.156Z,78.18
2017-08-11T11:17:06.917Z,76.71
2017-08-11T11:19:32.745Z,76.27
2017-08-11T11:21:58.577Z,77.34
2017-08-11T11:24:24.449Z,77.89
2017-08-11T11:26:50.192Z,77.62
2017-08-11T11:29:16.037Z,78.16
2017-08-11T11:31:41.830Z,78.34
2017-08-11T11:34:07.761Z,78.71
2017-08-11T11:36:33.496Z,79.44
2017-08-11T11:38:59.350Z,79.06
2017-08-11T11:41:25.208Z,78.18
2017-08-11T11:43:50.994Z,77.99
2017-08-11T11:46:16.808Z,77.10
2017-08-11T11:48:42.635Z,77.00
2017-08-11T11:51:08.448Z,77.31
2017-08-11T11:53:34.288Z,77.68
2017-08-11T11:56:00.094Z,78.07
2017-08-11T11:58:25.913Z,77.90
2017-08-11T12:00:51.738Z,78.74
2017-08-11T12:03:17.540Z,78.43
2017-08-11T12:05:43.360Z,78.89
2017-08-11T12:08:09.110Z,78.63
2017-08-11T12:10:34.925Z,79.04
2017-08-11T12:13:00.745Z,80.32
2017-08-11T12:15:26.654Z,81.21
2017-08-11T12:17:52.385Z,81.75
2017-08-11T12:20:18.194Z,82.38
2017-08-11T12:22:44.129Z,82.21
2017-08-11T12:25:09.868Z,82.03
2017-08-11T12:27:35.740Z,83.20
2017-08-11T12:30:01.584Z,83.71
2017-08-11T12:32:27.380Z,83.96
2017-08-11T12:34:53.111Z,83.19
2017-08-11T12:37:18.964Z,82.84
2017-08-11T12:39:44.816Z,82.85
2017-08-11T12:42:10.644Z,83.08
2017-08-11T12:44:36.417Z,81.98
2017-08-11T12:47:02.230Z,82.42
2017-08-11T12:49:28.089Z,82.35
2017-08-11T12:51:53.937Z,83.06
2017-08-11T12:54:19.758Z,83.74
2017-08-11T12:56:45.569Z,83.58
2017-08-11T12:59:11.288Z,83.69
2017-08-11T13:01:37.125Z,82.98
2017-08-11T13:04:03.039Z,83.90
2017-08-11T13:06:28.813Z,83.70
2017-08-11T13:08:54.692Z,84.37
2017-08-11T13:11:20.466Z,84.93
2017-08-11T13:13:46.201Z,85.79
2017-08-11T13:16:12.049Z,85.82
2017-08-11T13:18:37.939Z,85.33
2017-08-11T13:21:03.732Z,85.96
2017-08-11T13:23:29.551Z,86.55
2017-08-11T13:25:55.331Z,86.96
2017-08-11T13:28:21.113Z,86.82
2017-08-11T13:30:47.009Z,87.69
2017-08-11T13:33:12.833Z,87.66
2017-08-11T13:35:38.668Z,87.42
2017-08-11T13:38:04.458Z,88.04
2017-08-11T13:40:30.282Z,88.45
2017-08-11T13:42:56.051Z,87.31
2017-08-11T13:45:21.917Z,88.40
2017-08-11T13:47:47.767Z,88.88
2017-08-11T13:50:13.476Z,89.66
2017-08-11T13:52:39.304Z,90.57
2017-08-11T13:55:05.216Z,91.18
2017-08-11T13:57:30.960Z,91.57
2017-08-11T13:59:56.763Z,91.32
2017-08-11T14:02:22.625Z,91.95
2017-08-11T14:04:48.419Z,91.94
2017-08-11T14:07:14.234Z,91.82
2017-08-11T14:09:40.133Z,92.46
2017-08-11T14:12:05.862Z,92.08
2017-08-11T14:14:31.693Z,92.40
2017-08-11T14:16:57.489Z,92.20
2017-08-11T14:19:23.420Z,92.24
2017-08-11T14:21:49.193Z,92.38
2017-08-11T14:24:21.053Z,92.83
2017-08-11T14:26:46.989Z,92.58
2017-08-11T14:29:12.785Z,93.13
2017-08-11T14:31:38.663Z,93.08
2017-08-11T14:34:04.440Z,91.99
2017-08-11T14:36:30.195Z,92.90
2017-08-11T14:38:56.037Z,93.32
2017-08-11T14:41:21.852Z,92.30
2017-08-11T14:43:47.710Z,92.53
2017-08-11T14:46:13.575Z,93.00
2017-08-11T14:48:39.339Z,92.40
2017-08-11T14:51:05.124Z,92.53
2017-08-11T14:53:30.929Z,92.16
2017-08-11T14:55:56.805Z,93.06
2017-08-11T14:58:22.646Z,92.20
2017-08-11T15:00:48.365Z,92.91
2017-08-11T15:03:14.183Z,93.00
2017-08-11T15:05:40.028Z,93.52
2017-08-11T15:08:05.984Z,93.15
2017-08-11T15:10:31.728Z,93.06
2017-08-11T15:12:57.499Z,93.15
2017-08-11T15:15:23.320Z,93.76
2017-08-11T15:17:49.121Z,93.78
2017-08-11T15:20:14.908Z,93.20
2017-08-11T15:22:40.809Z,93.85
2017-08-11T15:25:06.632Z,93.04
2017-08-11T15:27:32.364Z,93.71
2017-08-11T15:29:58.288Z,93.28
2017-08-11T15:32:24.040Z,94.04
2017-08-11T15:34:49.902Z,92.98
2017-08-11T15:37:15.666Z,93.04
2017-08-11T15:39:41.449Z,93.35
2017-08-11T15:42:07.309Z,93.27
2017-08-11T15:44:33.093Z,92.86
2017-08-11T15:46:59.911Z,93.20
2017-08-11T15:49:25.823Z,92.54
2017-08-11T15:51:51.669Z,93.26
2017-08-11T15:54:17.509Z,92.76
2017-08-11T15:56:43.274Z,92.75
2017-08-11T15:59:09.024Z,93.00
2017-08-11T16:01:34.881Z,92.49
2017-08-11T16:04:00.673Z,92.37
2017-08-11T16:06:26.584Z,92.26
2017-08-11T16:08:52.313Z,92.02
2017-08-11T16:11:18.192Z,92.33
2017-08-11T16:13:44.024Z,92.66
2017-08-11T16:16:09.833Z,93.34
2017-08-11T16:18:35.580Z,93.03
2017-08-11T16:21:01.434Z,91.38
2017-08-11T16:23:27.212Z,92.53
2017-08-11T16:25:53.033Z,92.52
2017-08-11T16:28:18.915Z,92.30
2017-08-11T16:30:44.780Z,92.31
2017-08-11T16:33:10.495Z,92.34
2017-08-11T16:35:36.449Z,92.02
2017-08-11T16:38:02.171Z,92.11
2017-08-11T16:40:28.004Z,92.31
2017-08-11T16:42:53.768Z,92.47
2017-08-11T16:45:19.616Z,92.73
2017-08-11T16:47:45.460Z,92.70
2017-08-11T16:50:11.209Z,92.80
2017-08-11T16:52:37.032Z,92.90
2017-08-11T16:55:02.852Z,93.26
2017-08-11T16:57:28.669Z,93.15
2017-08-11T16:59:54.516Z,93.91
2017-08-11T17:02:20.349Z,93.89
2017-08-11T17:04:46.189Z,94.77
2017-08-11T17:07:11.986Z,95.12
2017-08-11T17:09:37.784Z,93.84
2017-08-11T17:12:03.583Z,93.58
2017-08-11T17:14:29.429Z,93.23
2017-08-11T17:16:55.224Z,94.21
2017-08-11T17:19:21.076Z,93.97
2017-08-11T17:21:46.891Z,94.72
2017-08-11T17:24:12.685Z,94.89
2017-08-11T17:26:38.591Z,94.39
2017-08-11T17:29:04.315Z,94.81
2017-08-11T17:31:30.162Z,94.63
2017-08-11T17:33:56.029Z,95.06
2017-08-11T17:36:21.785Z,95.24
2017-08-11T17:38:47.700Z,95.37
2017-08-11T17:41:13.413Z,95.61
2017-08-11T17:43:39.289Z,95.12
2017-08-11T17:46:05.080Z,95.16
2017-08-11T17:48:30.864Z,95.16
2017-08-11T17:50:56.690Z,94.78
2017-08-11T17:53:22.509Z,95.42
2017-08-11T17:55:48.324Z,95.02
2017-08-11T17:58:14.152Z,95.05
2017-08-11T18:00:40.039Z,94.75
2017-08-11T18:03:05.833Z,94.62
2017-08-11T18:05:31.663Z,94.10
2017-08-11T18:07:57.434Z,94.39
2017-08-11T18:10:23.277Z,94.01
2017-08-11T18:12:49.075Z,94.79
2017-08-11T18:15:14.967Z,95.43
2017-08-11T18:17:40.679Z,95.52
2017-08-11T18:20:06.591Z,95.31
2017-08-11T18:22:32.381Z,95.24
2017-08-11T18:24:58.129Z,94.97
2017-08-11T18:27:24.033Z,94.74
2017-08-11T18:29:49.787Z,94.19
2017-08-11T18:32:15.631Z,94.75
2017-08-11T18:34:41.464Z,94.58
2017-08-11T18:37:07.258Z,94.88
2017-08-11T18:39:33.178Z,95.32
2017-08-11T18:41:58.938Z,94.70
2017-08-11T18:44:24.689Z,94.69
2017-08-11T18:46:50.643Z,94.18
2017-08-11T18:49:16.394Z,94.91
2017-08-11T18:51:42.143Z,94.75
2017-08-11T18:54:07.972Z,94.48
2017-08-11T18:56:33.771Z,94.60
2017-08-11T18:58:59.615Z,94.95
2017-08-11T19:01:25.436Z,95.04
2017-08-11T19:03:51.898Z,94.41
2017-08-11T19:06:17.673Z,95.06
2017-08-11T19:08:43.498Z,94.76
2017-08-11T19:11:09.428Z,94.73
2017-08-11T19:13:35.167Z,95.25
2017-08-11T19:16:00.975Z,95.52
2017-08-11T19:18:26.836Z,95.47
2017-08-11T19:20:52.595Z,95.75
2017-08-11T19:23:18.423Z,95.72
2017-08-11T19:25:44.275Z,96.09
2017-08-11T19:28:10.137Z,95.98
2017-08-11T19:30:35.888Z,95.50
2017-08-11T19:33:01.743Z,95.57
2017-08-11T19:35:27.584Z,95.51
2017-08-11T19:37:53.324Z,95.45
2017-08-11T19:40:19.166Z,96.27
2017-08-11T19:42:45.047Z,95.32
2017-08-11T19:45:11.606Z,96.10
2017-08-11T19:47:37.464Z,96.03
2017-08-11T19:50:03.255Z,95.90
2017-08-11T19:52:29.069Z,96.12
2017-08-11T19:54:54.915Z,95.84
2017-08-11T19:57:20.691Z,96.53
2017-08-11T19:59:46.616Z,96.23
2017-08-11T20:02:12.381Z,95.66
2017-08-11T20:04:38.201Z,95.48
2017-08-11T20:07:04.042Z,96.06
2017-08-11T20:09:29.815Z,95.22
2017-08-11T20:11:56.480Z,94.86
2017-08-11T20:14:22.230Z,94.55
2017-08-11T20:16:48.083Z,94.79
2017-08-11T20:19:13.923Z,94.94
2017-08-11T20:21:39.716Z,94.64
2017-08-11T20:24:05.595Z,94.92
2017-08-11T20:26:31.489Z,95.22
2017-08-11T20:28:57.433Z,95.35
2017-08-11T20:31:23.182Z,95.15
2017-08-11T20:33:49.322Z,95.11
2017-08-11T20:36:15.050Z,95.42
2017-08-11T20:38:40.846Z,95.47
2017-08-11T20:41:06.771Z,95.45
2017-08-11T20:43:32.511Z,95.84
2017-08-11T20:45:58.317Z,96.12
2017-08-11T20:48:24.117Z,95.61
2017-08-11T20:50:49.937Z,95.63
2017-08-11T20:53:15.765Z,95.72
2017-08-11T20:55:41.574Z,96.13
2017-08-11T20:58:07.404Z,95.91
2017-08-11T21:00:33.230Z,96.00
2017-08-11T21:02:59.083Z,95.98
2017-08-11T21:05:24.862Z,96.18
2017-08-11T21:07:50.715Z,96.17
2017-08-11T21:10:16.485Z,95.75
2017-08-11T21:12:42.303Z,95.66
2017-08-11T21:15:08.164Z,95.82
2017-08-11T21:17:33.933Z,95.33
2017-08-11T21:19:59.765Z,94.96
2017-08-11T21:22:25.616Z,94.97
2017-08-11T21:24:51.385Z,95.65
2017-08-11T21:27:17.212Z,95.56
2017-08-11T21:29:43.122Z,94.87
2017-08-11T21:32:08.931Z,95.40
2017-08-11T21:34:34.683Z,95.43
2017-08-11T21:37:00.467Z,95.86
2017-08-11T21:39:26.334Z,96.00
2017-08-11T21:41:52.106Z,95.96
2017-08-11T21:44:17.948Z,96.26
2017-08-11T21:46:43.850Z,95.83
2017-08-11T21:49:09.643Z,95.62
2017-08-11T21:51:35.421Z,95.71
2017-08-11T21:54:01.215Z,95.65
2017-08-11T21:56:27.014Z,95.62
2017-08-11T21:58:52.849Z,95.29
2017-08-11T22:01:18.739Z,95.54
2017-08-11T22:03:44.520Z,95.69
2017-08-11T22:06:10.362Z,95.69
2017-08-11T22:08:36.106Z,95.15
2017-08-11T22:11:01.989Z,95.09
2017-08-11T22:13:27.760Z,94.89
2017-08-11T22:15:53.562Z,95.21
2017-08-11T22:18:19.405Z,94.95
2017-08-11T22:20:45.227Z,95.19
2017-08-11T22:23:11.058Z,94.99
2017-08-11T22:25:36.887Z,94.49
2017-08-11T22:28:02.673Z,94.74
2017-08-11T22:30:28.482Z,94.64
2017-08-11T22:32:54.398Z,94.60
2017-08-11T22:35:20.143Z,94.56
2017-08-11T22:37:45.928Z,94.49
2017-08-11T22:40:11.861Z,94.92
2017-08-11T22:42:37.610Z,94.76
2017-08-11T22:45:03.466Z,94.69
2017-08-11T22:47:29.224Z,95.14
2017-08-11T22:49:55.065Z,94.97
2017-08-11T22:52:20.915Z,94.79
2017-08-11T22:54:46.673Z,95.12
2017-08-11T22:57:12.504Z,94.78
2017-08-11T22:59:38.357Z,94.33
2017-08-11T23:02:04.131Z,94.85
2017-08-11T23:04:29.954Z,94.79
2017-08-11T23:06:55.903Z,94.97
2017-08-11T23:09:21.658Z,95.20
2017-08-11T23:11:47.469Z,94.77
2017-08-11T23:14:13.211Z,95.01
2017-08-11T23:16:39.666Z,95.06
2017-08-11T23:19:05.550Z,95.30
2017-08-11T23:21:31.321Z,94.84
2017-08-11T23:23:57.107Z,95.25
2017-08-11T23:26:22.975Z,94.71
2017-08-11T23:28:48.747Z,94.72
2017-08-11T23:31:14.559Z,94.82
2017-08-11T23:33:40.401Z,95.20
2017-08-11T23:36:06.191Z,95.26
2017-08-11T23:38:32.048Z,94.34
2017-08-11T23:40:57.839Z,95.95
2017-08-11T23:43:23.680Z,95.53
2017-08-11T23:45:49.535Z,95.38
2017-08-11T23:48:15.299Z,95.63
2017-08-11T23:50:41.128Z,96.12
2017-08-11T23:53:06.949Z,95.71
2017-08-11T23:55:32.753Z,95.68
2017-08-11T23:57:58.571Z,95.99
